Time;durP1;ratioP1;P1;durP2;ratioP2;P2;SDS_P1;SDS_P2;PMS_P1;PMS_P2;Temp;Humidity;BMP_temperature;BMP_pressure;BME280_temperature;BME280_humidity;BME280_pressure;Samples;Min_cycle;Max_cycle;Signal;HPM_P1;HPM_P2
2022/11/01 00:00:07;;;;;;;7.28;6.57;;;22.60;99.90;;;;;;6218770;28;89092;-69
2022/11/01 00:03:09;;;;;;;7.18;6.47;;;22.60;99.90;;;;;;6232512;28;88269;-70
2022/11/01 00:06:11;;;;;;;7.30;6.60;;;22.60;99.90;;;;;;6226806;28;89516;-70
2022/11/01 00:09:15;;;;;;;7.40;6.70;;;22.60;99.90;;;;;;6227409;28;89084;-69
2022/11/01 00:12:17;;;;;;;7.97;7.18;;;22.60;99.90;;;;;;6215711;28;91254;-70
2022/11/01 00:15:19;;;;;;;7.18;6.47;;;22.60;99.90;;;;;;6231546;28;89222;-69
2022/11/01 00:18:21;;;;;;;7.38;6.68;;;22.60;99.90;;;;;;6231207;28;89159;-69
2022/11/01 00:21:23;;;;;;;7.57;6.88;;;22.50;99.90;;;;;;6225375;28;89265;-70
2022/11/01 00:24:29;;;;;;;6.85;6.25;;;22.50;99.90;;;;;;6225797;28;89321;-69
2022/11/01 00:27:31;;;;;;;7.80;7.00;;;22.60;99.90;;;;;;6220384;28;89075;-70
2022/11/01 00:30:36;;;;;;;7.05;6.35;;;22.50;99.90;;;;;;6230920;28;89165;-69
2022/11/01 00:33:39;;;;;;;7.18;6.47;;;22.60;99.90;;;;;;6216061;28;88331;-70
2022/11/01 00:36:41;;;;;;;7.75;7.05;;;22.50;99.90;;;;;;6219707;28;89135;-70
2022/11/01 00:39:44;;;;;;;7.93;7.13;;;22.50;99.90;;;;;;6225605;28;89269;-70
2022/11/01 00:42:46;;;;;;;7.95;7.18;;;22.50;99.90;;;;;;6220856;28;88986;-69
2022/11/01 00:45:48;;;;;;;7.85;7.07;;;22.50;99.90;;;;;;6219923;28;88097;-70
2022/11/01 00:48:50;;;;;;;7.60;6.90;;;22.50;99.90;;;;;;6230604;28;89122;-69
2022/11/01 00:51:52;;;;;;;7.40;6.70;;;22.50;99.90;;;;;;6230908;28;89336;-70
2022/11/01 00:54:56;;;;;;;7.43;6.72;;;22.50;99.90;;;;;;6224338;28;89087;-69
2022/11/01 00:57:58;;;;;;;8.25;7.53;;;22.50;99.90;;;;;;6225296;28;89201;-69
2022/11/01 01:01:00;;;;;;;7.82;7.10;;;22.50;99.90;;;;;;6224579;28;89242;-69
2022/11/01 01:04:02;;;;;;;8.35;7.50;;;22.50;99.90;;;;;;6219249;28;87296;-69
2022/11/01 01:07:04;;;;;;;8.63;7.60;;;22.40;99.90;;;;;;6217677;28;89675;-70
2022/11/01 01:10:08;;;;;;;8.10;7.30;;;22.50;99.90;;;;;;6207811;28;89192;-69
2022/11/01 01:13:10;;;;;;;8.43;7.63;;;22.50;99.90;;;;;;6217566;28;90592;-69
2022/11/01 01:16:13;;;;;;;8.15;7.35;;;22.40;99.90;;;;;;6209984;28;89038;-69
2022/11/01 01:19:15;;;;;;;8.43;7.63;;;22.50;99.90;;;;;;6213826;28;89222;-70
2022/11/01 01:22:17;;;;;;;8.85;7.95;;;22.50;99.90;;;;;;6228478;28;89369;-69
2022/11/01 01:25:21;;;;;;;8.75;7.85;;;22.50;99.90;;;;;;6230559;28;89198;-70
2022/11/01 01:28:23;;;;;;;8.88;7.95;;;22.50;99.90;;;;;;6225400;28;90081;-69
2022/11/01 01:31:25;;;;;;;9.10;8.20;;;22.50;99.90;;;;;;6222360;28;89508;-70
2022/11/01 01:34:27;;;;;;;8.90;8.10;;;22.40;99.90;;;;;;6224811;28;88385;-69
2022/11/01 01:37:29;;;;;;;9.25;8.35;;;22.50;99.90;;;;;;6222759;28;89251;-69
2022/11/01 01:40:34;;;;;;;9.05;8.18;;;22.40;99.90;;;;;;6226539;28;89161;-69
2022/11/01 01:43:42;;;;;;;9.32;8.43;;;22.40;99.90;;;;;;6208193;28;90041;-70
2022/11/01 01:46:45;;;;;;;9.95;8.85;;;22.40;99.90;;;;;;6214777;28;89039;-70
2022/11/01 01:49:49;;;;;;;9.18;8.27;;;22.40;99.90;;;;;;6227199;28;89134;-70
2022/11/01 01:52:55;;;;;;;9.57;8.68;;;22.40;99.90;;;;;;6228047;28;89570;-70
2022/11/01 01:56:03;;;;;;;9.80;8.90;;;22.40;99.90;;;;;;6219977;28;89310;-69
2022/11/01 01:59:07;;;;;;;9.90;8.90;;;22.40;99.90;;;;;;6218679;28;87901;-69
2022/11/01 02:02:09;;;;;;;9.50;8.60;;;22.40;99.90;;;;;;6220944;28;89556;-69
2022/11/01 02:05:18;;;;;;;9.93;8.93;;;22.40;99.90;;;;;;6225210;28;88555;-69
2022/11/01 02:08:26;;;;;;;9.68;8.65;;;22.40;99.90;;;;;;6232735;28;89085;-69
2022/11/01 02:11:30;;;;;;;10.15;9.15;;;22.40;99.90;;;;;;6211334;28;87973;-70
2022/11/01 02:14:32;;;;;;;9.98;8.98;;;22.40;99.90;;;;;;6220477;28;90297;-69
2022/11/01 02:17:40;;;;;;;9.85;8.90;;;22.40;99.90;;;;;;6219252;28;89397;-69
2022/11/01 02:21:17;;;;;;;9.95;9.05;;;22.40;99.90;;;;;;6228853;28;89528;-69
2022/11/01 02:25:01;;;;;;;9.77;8.77;;;22.40;99.90;;;;;;6226266;28;89089;-69
2022/11/01 02:28:29;;;;;;;10.73;9.73;;;22.40;99.90;;;;;;6169699;28;89178;-69
2022/11/01 02:31:48;;;;;;;10.43;9.43;;;22.30;99.90;;;;;;6221084;28;88985;-69
2022/11/01 02:34:58;;;;;;;9.95;9.00;;;22.40;99.90;;;;;;6231683;28;89176;-69
2022/11/01 02:38:07;;;;;;;10.63;9.52;;;22.30;99.90;;;;;;6232278;28;88895;-69
2022/11/01 02:41:13;;;;;;;10.07;9.15;;;22.40;99.90;;;;;;6233317;28;89165;-69
2022/11/01 02:44:20;;;;;;;10.48;9.48;;;22.30;99.90;;;;;;6234585;28;89353;-69
2022/11/01 02:47:25;;;;;;;9.95;9.05;;;22.40;99.90;;;;;;6220839;28;90093;-69
2022/11/01 02:50:30;;;;;;;10.50;9.50;;;22.40;99.90;;;;;;6222081;28;89156;-69
2022/11/01 02:53:32;;;;;;;10.82;9.80;;;22.30;99.90;;;;;;6228835;28;89264;-69
2022/11/01 02:56:35;;;;;;;10.57;9.48;;;22.30;99.90;;;;;;6231842;28;89135;-69
2022/11/01 02:59:44;;;;;;;10.75;9.75;;;22.40;99.90;;;;;;6222384;28;89154;-70
2022/11/01 03:02:52;;;;;;;10.27;9.38;;;22.30;99.90;;;;;;6209297;28;89208;-69
2022/11/01 03:06:07;;;;;;;10.40;9.40;;;22.30;99.90;;;;;;6230828;28;89136;-70
2022/11/01 03:09:12;;;;;;;10.85;9.80;;;22.30;99.90;;;;;;6231956;28;88405;-69
2022/11/01 03:12:20;;;;;;;10.30;9.30;;;22.30;99.90;;;;;;6232631;28;89104;-69
2022/11/01 03:15:27;;;;;;;10.00;9.00;;;22.30;99.90;;;;;;6218954;28;89717;-68
2022/11/01 03:18:35;;;;;;;10.68;9.60;;;22.30;99.90;;;;;;6211244;28;90208;-69
2022/11/01 03:21:42;;;;;;;10.82;9.82;;;22.30;99.90;;;;;;6229084;28;89490;-69
2022/11/01 03:24:52;;;;;;;10.35;9.30;;;22.30;99.90;;;;;;6225509;28;87979;-69
2022/11/01 03:27:56;;;;;;;10.55;9.45;;;22.30;99.90;;;;;;6225821;28;89214;-69
2022/11/01 03:31:04;;;;;;;10.70;9.70;;;22.30;99.90;;;;;;6220473;28;88825;-70
2022/11/01 03:34:13;;;;;;;9.88;8.88;;;22.20;99.90;;;;;;6231861;28;89053;-70
2022/11/01 03:37:16;;;;;;;10.15;9.25;;;22.20;99.90;;;;;;6224310;28;89245;-69
2022/11/01 03:40:19;;;;;;;10.60;9.60;;;22.30;99.90;;;;;;6233230;28;88429;-70
2022/11/01 03:43:24;;;;;;;10.38;9.38;;;22.30;99.90;;;;;;6221893;28;89583;-69
2022/11/01 03:46:26;;;;;;;10.25;9.30;;;22.20;99.90;;;;;;6213899;28;88055;-69
2022/11/01 03:49:30;;;;;;;10.23;9.25;;;22.20;99.90;;;;;;6218426;28;90021;-70
2022/11/01 03:52:32;;;;;;;10.30;9.30;;;22.20;99.90;;;;;;6215628;28;87990;-69
2022/11/01 03:55:34;;;;;;;10.50;9.40;;;22.30;99.90;;;;;;6213661;28;89240;-70
2022/11/01 03:58:42;;;;;;;9.98;8.98;;;22.20;99.90;;;;;;6218715;28;89129;-70
2022/11/01 04:01:44;;;;;;;10.05;9.10;;;22.20;99.90;;;;;;6227701;28;88850;-69
2022/11/01 04:04:48;;;;;;;11.02;9.90;;;22.30;99.90;;;;;;6208459;28;89174;-69
2022/11/01 04:07:51;;;;;;;10.60;9.50;;;22.20;99.90;;;;;;6232567;28;89245;-69
2022/11/01 04:10:53;;;;;;;10.30;9.30;;;22.20;99.90;;;;;;6233328;28;88437;-70
2022/11/01 04:20:31;;;;;;;9.57;8.68;;;22.20;99.90;;;;;;6231361;28;89349;-69
2022/11/01 04:20:38;;;;;;;9.80;8.80;;;22.20;99.90;;;;;;6231668;28;88847;-70
2022/11/01 04:23:41;;;;;;;9.65;8.75;;;22.20;99.90;;;;;;6207337;28;88070;-68
2022/11/01 04:26:43;;;;;;;9.80;8.90;;;22.20;99.90;;;;;;6213800;28;89185;-69
2022/11/01 04:29:45;;;;;;;9.05;8.25;;;22.20;99.90;;;;;;6218432;28;89328;-69
2022/11/01 04:32:47;;;;;;;9.63;8.73;;;22.20;99.90;;;;;;6231716;28;89525;-70
2022/11/01 04:35:50;;;;;;;9.73;8.82;;;22.20;99.90;;;;;;6212668;28;89308;-69
2022/11/01 04:38:55;;;;;;;9.68;8.77;;;22.20;99.90;;;;;;6219402;28;89142;-69
2022/11/01 04:41:57;;;;;;;9.55;8.65;;;22.20;99.90;;;;;;6219793;28;88137;-69
2022/11/01 04:44:59;;;;;;;9.18;8.38;;;22.20;99.90;;;;;;6219987;28;88063;-69
2022/11/01 04:48:02;;;;;;;9.55;8.65;;;22.20;99.90;;;;;;6220347;28;89286;-69
2022/11/01 04:51:06;;;;;;;9.73;8.82;;;22.20;99.90;;;;;;6219209;28;90111;-69
2022/11/01 04:54:08;;;;;;;9.40;8.50;;;22.30;99.90;;;;;;6219624;28;88126;-69
2022/11/01 04:57:21;;;;;;;9.25;8.35;;;22.30;99.90;;;;;;6219877;28;89063;-69
2022/11/01 05:00:24;;;;;;;8.82;8.02;;;22.30;99.90;;;;;;6212277;28;89027;-69
2022/11/01 05:03:26;;;;;;;8.88;8.07;;;22.30;99.90;;;;;;6213438;28;88144;-69
2022/11/01 05:06:29;;;;;;;9.25;8.35;;;22.30;99.90;;;;;;6221344;28;89192;-70
2022/11/01 05:09:31;;;;;;;9.00;8.10;;;22.30;99.90;;;;;;6231341;28;89426;-69
2022/11/01 05:12:33;;;;;;;8.80;8.00;;;22.30;99.90;;;;;;6220134;28;88523;-69
2022/11/01 05:15:36;;;;;;;8.98;8.10;;;22.30;99.90;;;;;;6209109;28;91210;-69
2022/11/01 05:18:39;;;;;;;8.95;8.05;;;22.40;99.90;;;;;;6210826;28;89259;-69
2022/11/01 05:21:43;;;;;;;8.82;8.02;;;22.30;99.90;;;;;;6226396;28;90094;-69
2022/11/01 05:24:45;;;;;;;8.43;7.63;;;22.40;99.90;;;;;;6211237;28;89191;-70
2022/11/01 05:27:47;;;;;;;8.93;8.13;;;22.40;99.90;;;;;;6222446;28;89185;-69
2022/11/01 05:30:49;;;;;;;8.13;7.43;;;22.40;99.90;;;;;;6217876;28;89398;-69
2022/11/01 05:33:51;;;;;;;8.52;7.72;;;22.40;99.90;;;;;;6224339;28;88136;-69
2022/11/01 05:36:55;;;;;;;8.20;7.40;;;22.40;99.90;;;;;;6234500;28;89305;-69
2022/11/01 05:39:57;;;;;;;8.60;7.80;;;22.40;99.90;;;;;;6223679;28;89074;-69
2022/11/01 05:42:59;;;;;;;8.68;7.78;;;22.40;99.90;;;;;;6235514;28;88415;-69
2022/11/01 05:46:04;;;;;;;8.10;7.30;;;22.40;99.90;;;;;;6220840;28;89225;-69
2022/11/01 05:49:05;;;;;;;8.48;7.68;;;22.50;99.90;;;;;;6224615;28;88498;-69
2022/11/01 05:52:09;;;;;;;8.38;7.57;;;22.40;99.90;;;;;;6234435;28;90385;-69
2022/11/01 05:55:11;;;;;;;8.10;7.38;;;22.40;99.90;;;;;;6222515;28;89605;-69
2022/11/01 05:58:14;;;;;;;7.85;7.05;;;22.40;99.90;;;;;;6234730;28;89155;-69
2022/11/01 06:01:16;;;;;;;7.75;7.05;;;22.50;99.90;;;;;;6211937;28;89144;-69
2022/11/01 06:04:18;;;;;;;8.20;7.40;;;22.50;99.90;;;;;;6221302;28;88980;-69
2022/11/01 06:07:24;;;;;;;7.60;6.90;;;22.50;99.90;;;;;;6221187;28;89340;-69
2022/11/01 06:10:26;;;;;;;8.07;7.38;;;22.50;99.90;;;;;;6230436;28;88911;-69
2022/11/01 06:13:28;;;;;;;8.20;7.40;;;22.40;99.90;;;;;;6209699;28;88436;-69
2022/11/01 06:16:30;;;;;;;7.80;7.10;;;22.40;99.90;;;;;;6223592;28;88069;-69
2022/11/01 06:19:32;;;;;;;7.30;6.60;;;22.50;99.90;;;;;;6218725;28;89277;-69
2022/11/01 06:22:36;;;;;;;7.82;7.07;;;22.40;99.90;;;;;;6222118;28;89924;-69
2022/11/01 06:25:38;;;;;;;7.15;6.53;;;22.50;99.90;;;;;;6230348;28;89013;-69
2022/11/01 06:28:40;;;;;;;7.40;6.70;;;22.50;99.90;;;;;;6227722;28;89681;-68
2022/11/01 06:31:42;;;;;;;7.10;6.50;;;22.50;99.90;;;;;;6214669;28;89177;-69
2022/11/01 06:34:44;;;;;;;6.90;6.30;;;22.50;99.90;;;;;;6233547;28;89288;-69
2022/11/01 06:37:48;;;;;;;6.93;6.32;;;22.50;99.90;;;;;;6231254;28;89164;-69
2022/11/01 06:40:50;;;;;;;6.85;6.25;;;22.50;99.90;;;;;;6232323;28;89633;-69
2022/11/01 06:43:52;;;;;;;6.93;6.32;;;22.50;99.90;;;;;;6219088;28;89037;-69
2022/11/01 06:46:54;;;;;;;7.43;6.72;;;22.50;99.90;;;;;;6218501;28;89225;-70
2022/11/01 06:49:56;;;;;;;7.10;6.50;;;22.50;99.90;;;;;;6226981;28;87938;-70
2022/11/01 06:53:00;;;;;;;6.93;6.32;;;22.50;99.90;;;;;;6226486;28;90431;-70
2022/11/01 06:56:02;;;;;;;7.13;6.53;;;22.50;99.90;;;;;;6232630;28;89174;-69
2022/11/01 06:59:04;;;;;;;7.32;6.63;;;22.50;99.90;;;;;;6233486;28;89093;-70
2022/11/01 07:02:06;;;;;;;6.72;6.13;;;22.50;99.90;;;;;;6226414;28;89035;-69
2022/11/01 07:05:08;;;;;;;7.00;6.32;;;22.50;99.90;;;;;;6209288;28;89197;-70
2022/11/01 07:08:13;;;;;;;6.82;6.22;;;22.50;99.90;;;;;;6208515;28;89178;-69
2022/11/01 07:11:15;;;;;;;6.63;6.00;;;22.50;99.90;;;;;;6230137;28;89294;-69
2022/11/01 07:14:17;;;;;;;6.72;6.13;;;22.50;99.90;;;;;;6233062;28;87319;-69
2022/11/01 07:17:19;;;;;;;6.90;6.22;;;22.50;99.90;;;;;;6217758;28;89477;-69
2022/11/01 07:20:21;;;;;;;6.72;6.13;;;22.50;99.90;;;;;;6232121;28;89260;-69
2022/11/01 07:23:24;;;;;;;7.78;6.90;;;22.60;99.90;;;;;;6232241;28;90489;-69
2022/11/01 07:26:26;;;;;;;6.60;6.00;;;22.50;99.90;;;;;;6221430;28;88326;-69
2022/11/01 07:29:28;;;;;;;6.32;5.72;;;22.50;99.90;;;;;;6222134;28;89182;-69
2022/11/01 07:32:30;;;;;;;6.70;6.10;;;22.50;99.90;;;;;;6233928;28;89391;-70
2022/11/01 07:35:33;;;;;;;6.40;5.80;;;22.50;99.90;;;;;;6233143;28;89200;-69
2022/11/01 07:38:37;;;;;;;6.45;5.85;;;22.50;99.90;;;;;;6226231;28;89172;-69
2022/11/01 07:41:39;;;;;;;6.63;6.03;;;22.50;99.90;;;;;;6227276;28;88214;-69
2022/11/01 07:44:44;;;;;;;6.40;5.80;;;22.60;99.90;;;;;;6220510;28;88349;-69
2022/11/01 07:47:46;;;;;;;6.40;5.80;;;22.50;99.90;;;;;;6214421;28;89181;-69
2022/11/01 07:50:48;;;;;;;6.75;5.72;;;22.60;99.90;;;;;;6210071;28;88848;-69
2022/11/01 07:53:51;;;;;;;6.70;6.10;;;22.50;99.90;;;;;;6230644;28;90135;-69
2022/11/01 07:56:53;;;;;;;6.38;5.78;;;22.60;99.90;;;;;;6207828;28;89360;-69
2022/11/01 07:59:55;;;;;;;6.30;5.70;;;22.60;99.90;;;;;;6208190;28;88852;-69
2022/11/01 08:03:01;;;;;;;5.90;5.40;;;22.60;99.90;;;;;;6211534;28;89235;-69
2022/11/01 08:06:03;;;;;;;6.47;5.88;;;22.60;99.90;;;;;;6215445;28;88790;-69
2022/11/01 08:09:07;;;;;;;5.82;5.32;;;22.60;99.90;;;;;;6232024;28;89108;-68
2022/11/01 08:12:10;;;;;;;6.38;5.78;;;22.60;99.90;;;;;;6226209;28;88965;-69
2022/11/01 08:15:12;;;;;;;5.82;5.32;;;22.60;99.90;;;;;;6207679;28;88571;-69
2022/11/01 08:18:14;;;;;;;6.20;5.60;;;22.60;99.90;;;;;;6222893;28;89182;-69
2022/11/01 08:21:17;;;;;;;6.50;5.90;;;22.60;99.90;;;;;;6230742;28;89060;-69
2022/11/01 08:24:20;;;;;;;5.68;5.18;;;22.60;99.90;;;;;;6229701;28;90078;-69
2022/11/01 08:27:22;;;;;;;6.03;5.43;;;22.60;99.90;;;;;;6221488;28;89244;-69
2022/11/01 08:30:24;;;;;;;6.18;5.63;;;22.60;99.90;;;;;;6231354;28;89126;-69
2022/11/01 08:33:26;;;;;;;5.80;5.30;;;22.60;99.90;;;;;;6213087;28;89521;-69
2022/11/01 08:36:28;;;;;;;5.95;5.45;;;22.60;99.90;;;;;;6220979;28;89250;-69
2022/11/01 08:39:32;;;;;;;6.13;5.63;;;22.60;99.90;;;;;;6220508;28;89130;-69
2022/11/01 08:42:34;;;;;;;6.15;5.55;;;22.60;99.90;;;;;;6230120;28;89264;-69
2022/11/01 08:45:36;;;;;;;6.18;5.57;;;22.60;99.90;;;;;;6218732;28;88648;-69
2022/11/01 08:48:38;;;;;;;5.70;5.20;;;22.60;99.90;;;;;;6232129;28;89218;-69
2022/11/01 08:51:40;;;;;;;5.70;5.20;;;22.60;99.90;;;;;;6231253;28;88257;-69
2022/11/01 08:54:43;;;;;;;5.63;5.13;;;22.60;99.90;;;;;;6230133;28;90414;-69
2022/11/01 08:57:46;;;;;;;5.88;5.38;;;22.70;99.90;;;;;;6218210;28;88031;-69
2022/11/01 09:00:48;;;;;;;5.70;5.20;;;22.60;99.90;;;;;;6231100;28;89272;-69
2022/11/01 09:03:50;;;;;;;5.65;5.15;;;22.60;99.90;;;;;;6231726;28;89599;-69
2022/11/01 09:06:52;;;;;;;5.50;5.00;;;22.70;99.90;;;;;;6230218;28;89708;-69
2022/11/01 09:09:55;;;;;;;5.35;4.85;;;22.60;99.90;;;;;;6230473;28;88064;-69
2022/11/01 09:12:58;;;;;;;5.35;4.85;;;22.60;99.90;;;;;;6227554;28;88123;-69
2022/11/01 09:16:00;;;;;;;6.07;5.47;;;22.60;99.90;;;;;;6219549;28;88329;-69
2022/11/01 09:19:02;;;;;;;5.60;5.10;;;22.70;99.90;;;;;;6204885;28;89275;-70
2022/11/01 09:22:04;;;;;;;5.70;5.20;;;22.70;99.90;;;;;;6217073;28;89043;-70
2022/11/01 09:25:08;;;;;;;5.38;4.88;;;22.70;99.90;;;;;;6226012;28;89078;-70
2022/11/01 09:28:10;;;;;;;5.80;5.20;;;22.60;99.90;;;;;;6206476;28;89326;-69
2022/11/01 09:31:13;;;;;;;5.50;5.00;;;22.70;99.90;;;;;;6218349;28;87985;-70
2022/11/01 09:34:15;;;;;;;5.65;5.15;;;22.60;99.90;;;;;;6218806;28;89276;-69
2022/11/01 09:37:17;;;;;;;5.20;4.80;;;22.70;99.90;;;;;;6229242;28;89274;-69
2022/11/01 09:40:21;;;;;;;5.30;4.80;;;22.60;99.90;;;;;;6220274;28;89509;-69
2022/11/01 09:43:25;;;;;;;5.40;4.90;;;22.70;99.90;;;;;;6230367;28;89273;-69
2022/11/01 09:46:30;;;;;;;5.63;5.13;;;22.60;99.90;;;;;;6230848;28;88339;-69
2022/11/01 09:49:35;;;;;;;5.47;4.97;;;22.70;99.90;;;;;;6211130;28;89602;-69
2022/11/01 09:52:37;;;;;;;4.93;4.53;;;22.60;99.90;;;;;;6223891;28;89258;-69
2022/11/01 09:55:48;;;;;;;5.20;4.72;;;22.70;99.90;;;;;;6225759;28;89170;-69
2022/11/01 09:59:01;;;;;;;5.40;4.90;;;22.70;99.90;;;;;;6208556;28;89168;-70
2022/11/01 10:02:24;;;;;;;5.30;4.80;;;22.70;99.90;;;;;;6229463;28;89178;-69
2022/11/01 10:05:43;;;;;;;5.40;4.90;;;22.70;99.90;;;;;;6229990;28;89195;-70
2022/11/01 10:08:58;;;;;;;5.47;4.97;;;22.70;99.90;;;;;;6229463;28;89134;-69
2022/11/01 10:12:12;;;;;;;5.05;4.55;;;22.70;99.90;;;;;;6228536;28;89860;-70
2022/11/01 10:15:26;;;;;;;4.80;4.40;;;22.70;99.90;;;;;;6229334;28;89321;-69
2022/11/01 10:18:29;;;;;;;5.15;4.70;;;22.70;99.90;;;;;;6227184;28;88516;-70
2022/11/01 10:21:42;;;;;;;4.85;4.43;;;22.70;99.90;;;;;;6231722;28;88999;-70
2022/11/01 10:24:50;;;;;;;4.82;4.40;;;22.70;99.90;;;;;;6233568;28;88831;-70
2022/11/01 10:28:04;;;;;;;5.00;4.60;;;22.70;99.90;;;;;;6233524;28;90399;-69
2022/11/01 10:31:11;;;;;;;4.57;4.18;;;22.70;99.90;;;;;;6209712;28;90020;-69
2022/11/01 10:34:21;;;;;;;4.75;4.35;;;22.70;99.90;;;;;;6221276;28;88293;-70
2022/11/01 10:37:28;;;;;;;4.70;4.30;;;22.70;99.90;;;;;;6220551;28;89966;-69
2022/11/01 10:40:35;;;;;;;5.15;4.75;;;22.70;99.90;;;;;;6232799;28;89226;-69
2022/11/01 10:43:43;;;;;;;4.80;4.40;;;22.70;99.90;;;;;;6209309;28;89437;-70
2022/11/01 10:46:48;;;;;;;4.75;4.35;;;22.70;99.90;;;;;;6208448;28;89549;-70
2022/11/01 10:49:53;;;;;;;4.90;4.50;;;22.70;99.90;;;;;;6222741;28;88388;-70
2022/11/01 10:52:58;;;;;;;4.88;4.47;;;22.80;99.90;;;;;;6228418;28;89065;-70
2022/11/01 10:56:06;;;;;;;5.15;4.65;;;22.70;99.90;;;;;;6215218;28;89117;-70
2022/11/01 10:59:15;;;;;;;4.75;4.35;;;22.80;99.90;;;;;;6227113;28;90093;-70
2022/11/01 11:02:23;;;;;;;4.80;4.40;;;22.70;99.90;;;;;;6225132;28;89206;-70
2022/11/01 11:05:29;;;;;;;4.78;4.38;;;22.70;99.90;;;;;;6228280;28;89264;-70
2022/11/01 11:08:33;;;;;;;4.53;4.13;;;22.80;99.90;;;;;;6213842;28;89356;-69
2022/11/01 11:11:39;;;;;;;4.63;4.22;;;22.70;99.90;;;;;;6226475;28;89005;-70
2022/11/01 11:14:45;;;;;;;4.60;4.20;;;22.70;99.90;;;;;;6216599;28;89247;-69
2022/11/01 11:17:52;;;;;;;4.78;4.38;;;22.80;99.90;;;;;;6219736;28;89063;-70
2022/11/01 11:20:58;;;;;;;5.03;4.53;;;22.80;99.90;;;;;;6223877;28;88432;-71
2022/11/01 11:24:01;;;;;;;4.55;4.15;;;22.70;99.90;;;;;;6225375;28;89199;-70
2022/11/01 11:27:11;;;;;;;4.60;4.20;;;22.70;99.90;;;;;;6227036;28;89066;-70
2022/11/01 11:30:29;;;;;;;4.60;4.20;;;22.80;99.90;;;;;;6230411;28;90150;-70
2022/11/01 11:33:31;;;;;;;4.65;4.25;;;22.80;99.90;;;;;;6231314;28;87985;-70
2022/11/01 11:36:35;;;;;;;4.78;4.38;;;22.80;99.90;;;;;;6230795;28;89143;-70
2022/11/01 11:39:38;;;;;;;4.38;4.07;;;22.80;99.90;;;;;;6231927;28;88100;-70
2022/11/01 11:42:40;;;;;;;4.70;4.20;;;22.80;99.90;;;;;;6229769;28;89551;-70
2022/11/01 11:45:43;;;;;;;4.57;4.18;;;22.80;99.90;;;;;;6222169;28;87967;-69
2022/11/01 11:48:51;;;;;;;4.45;4.05;;;22.80;99.90;;;;;;6232925;28;89385;-70
2022/11/01 11:51:53;;;;;;;4.80;4.40;;;22.80;99.90;;;;;;6208624;28;88162;-70
2022/11/01 11:54:55;;;;;;;4.60;4.20;;;22.80;99.90;;;;;;6231254;28;88195;-70
2022/11/01 11:57:58;;;;;;;4.30;3.90;;;22.80;99.90;;;;;;6231642;28;88190;-70
2022/11/01 12:01:05;;;;;;;4.35;4.03;;;22.80;99.90;;;;;;6218252;28;90009;-70
2022/11/01 12:04:12;;;;;;;4.50;4.10;;;22.80;99.90;;;;;;6232105;28;89250;-70
2022/11/01 12:07:27;;;;;;;3.88;3.50;;;22.80;99.90;;;;;;6210258;28;87922;-70
2022/11/01 12:10:33;;;;;;;4.38;3.97;;;22.90;99.90;;;;;;6229591;28;88135;-71
2022/11/01 12:13:40;;;;;;;4.13;3.75;;;22.80;99.90;;;;;;6218560;28;89453;-70
2022/11/01 12:16:43;;;;;;;4.18;3.88;;;22.80;99.90;;;;;;6210534;28;89112;-70
2022/11/01 12:19:45;;;;;;;4.70;4.30;;;22.80;99.90;;;;;;6207762;28;89196;-69
2022/11/01 12:22:52;;;;;;;4.30;3.90;;;22.80;99.90;;;;;;6214701;28;88437;-71
2022/11/01 12:25:55;;;;;;;4.82;4.43;;;22.80;99.90;;;;;;6217758;28;89340;-71
2022/11/01 12:29:04;;;;;;;3.90;3.60;;;22.80;99.90;;;;;;6228028;28;89568;-70
2022/11/01 12:32:17;;;;;;;4.00;3.70;;;22.80;99.90;;;;;;6230586;28;90456;-71
2022/11/01 12:35:28;;;;;;;4.43;4.03;;;22.80;99.90;;;;;;6231498;28;88061;-70
2022/11/01 12:38:39;;;;;;;4.00;3.70;;;22.80;99.90;;;;;;6230275;28;89329;-70
2022/11/01 12:41:44;;;;;;;3.78;3.47;;;22.80;99.90;;;;;;6231433;28;88992;-70
2022/11/01 12:44:51;;;;;;;4.25;3.85;;;22.80;99.90;;;;;;6224712;28;89603;-70
2022/11/01 12:47:59;;;;;;;4.10;3.70;;;22.70;99.90;;;;;;6212439;28;89219;-71
2022/11/01 12:51:05;;;;;;;4.10;3.70;;;22.80;99.90;;;;;;6230266;28;89306;-71
2022/11/01 12:54:15;;;;;;;4.47;4.07;;;22.80;99.90;;;;;;6227759;28;88381;-70
2022/11/01 12:57:18;;;;;;;4.20;3.80;;;22.90;99.90;;;;;;6218659;28;89257;-70
2022/11/01 13:00:21;;;;;;;4.20;3.80;;;22.80;99.90;;;;;;6220583;28;89282;-70
2022/11/01 13:03:37;;;;;;;3.90;3.60;;;22.80;99.90;;;;;;6217623;28;90457;-70
2022/11/01 13:06:53;;;;;;;4.22;3.92;;;22.80;99.90;;;;;;6217587;28;89041;-70
2022/11/01 13:10:04;;;;;;;4.45;3.72;;;22.80;99.90;;;;;;6224546;28;89376;-70
2022/11/01 13:13:17;;;;;;;4.22;3.78;;;22.80;99.90;;;;;;6205772;28;89060;-70
2022/11/01 13:16:25;;;;;;;4.70;3.92;;;22.80;99.90;;;;;;6209982;28;87991;-70
2022/11/01 13:19:37;;;;;;;4.03;3.67;;;22.80;99.90;;;;;;6231112;28;89039;-70
2022/11/01 13:22:47;;;;;;;3.97;3.58;;;22.80;99.90;;;;;;6220901;28;89140;-70
2022/11/01 13:25:58;;;;;;;3.83;3.53;;;22.80;99.90;;;;;;6206317;28;89053;-70
2022/11/01 13:29:08;;;;;;;3.78;3.40;;;22.80;99.90;;;;;;6227803;28;89155;-70
2022/11/01 13:32:18;;;;;;;4.18;3.50;;;22.80;99.90;;;;;;6229040;28;89128;-70
2022/11/01 13:35:39;;;;;;;4.03;3.63;;;22.80;99.90;;;;;;6226194;28;88973;-70
2022/11/01 13:38:48;;;;;;;4.20;3.80;;;22.80;99.90;;;;;;6222818;28;89199;-70
2022/11/01 13:41:58;;;;;;;3.97;3.60;;;22.80;99.90;;;;;;6218443;28;89024;-70
2022/11/01 13:45:16;;;;;;;4.47;3.40;;;22.80;99.90;;;;;;6217458;28;88237;-70
2022/11/01 13:48:29;;;;;;;4.00;3.55;;;22.80;99.90;;;;;;6226674;28;89268;-70
2022/11/01 13:51:40;;;;;;;4.10;3.70;;;22.80;99.90;;;;;;6225599;28;89127;-70
2022/11/01 13:54:50;;;;;;;4.22;3.83;;;22.80;99.90;;;;;;6228310;28;89606;-70
2022/11/01 13:57:54;;;;;;;4.72;4.22;;;22.80;99.90;;;;;;6228338;28;88751;-70
2022/11/01 14:00:56;;;;;;;6.72;4.22;;;22.80;99.90;;;;;;6226811;28;89528;-68
2022/11/01 14:04:37;;;;;;;5.07;3.38;;;22.80;99.90;;;;;;6217929;28;89051;-68
2022/11/01 14:08:21;;;;;;;4.53;3.75;;;22.80;99.90;;;;;;6212763;28;89244;-67
2022/11/01 14:11:45;;;;;;;5.00;3.50;;;22.80;99.90;;;;;;6223543;28;89271;-66
2022/11/01 14:14:51;;;;;;;5.38;3.72;;;22.90;99.90;;;;;;6211539;28;89135;-66
2022/11/01 14:18:06;;;;;;;4.20;3.40;;;22.90;99.90;;;;;;6229894;28;88120;-67
2022/11/01 14:21:27;;;;;;;5.90;4.15;;;22.90;99.90;;;;;;6219834;28;89419;-67
2022/11/01 14:24:31;;;;;;;6.05;4.50;;;22.90;99.90;;;;;;6217091;28;90276;-66
2022/11/01 14:27:34;;;;;;;28.10;15.68;;;22.90;99.90;;;;;;6225283;28;89231;-66
2022/11/01 14:30:41;;;;;;;81.70;41.95;;;22.90;99.90;;;;;;6217594;28;88488;-66
2022/11/01 14:33:47;;;;;;;390.35;333.10;;;22.90;99.90;;;;;;6213839;28;88747;-67
2022/11/01 14:36:51;;;;;;;311.20;261.15;;;22.90;99.90;;;;;;6217769;28;89124;-66
2022/11/01 14:40:13;;;;;;;85.80;66.47;;;23.00;99.90;;;;;;6213796;28;90569;-66
2022/11/01 14:43:20;;;;;;;44.17;35.83;;;23.00;99.90;;;;;;6217978;28;89097;-66
2022/11/01 14:46:26;;;;;;;36.17;27.77;;;23.10;99.90;;;;;;6217613;28;89129;-66
2022/11/01 14:49:33;;;;;;;29.88;22.05;;;23.00;99.90;;;;;;6212053;28;89511;-67
2022/11/01 14:52:41;;;;;;;27.90;20.75;;;23.10;99.90;;;;;;6219188;28;89577;-66
2022/11/01 14:55:44;;;;;;;25.60;18.83;;;23.10;99.90;;;;;;6214497;28;87415;-66
2022/11/01 14:58:47;;;;;;;24.85;18.05;;;23.10;99.90;;;;;;6208633;28;88060;-67
2022/11/01 15:01:52;;;;;;;21.85;16.60;;;23.10;99.90;;;;;;6209498;28;87463;-67
2022/11/01 15:04:58;;;;;;;24.17;16.65;;;23.10;99.90;;;;;;6203043;28;89091;-66
2022/11/01 15:08:00;;;;;;;22.23;15.57;;;23.00;99.90;;;;;;6214751;28;89159;-67
2022/11/01 15:11:04;;;;;;;20.27;14.45;;;23.00;99.90;;;;;;6211655;28;90130;-66
2022/11/01 15:14:08;;;;;;;20.52;13.98;;;23.00;99.90;;;;;;6229310;28;89073;-66
2022/11/01 15:17:20;;;;;;;15.75;13.50;;;22.90;99.90;;;;;;6215323;28;89197;-66
2022/11/01 15:20:25;;;;;;;17.20;13.48;;;23.00;99.90;;;;;;6219989;28;88082;-67
2022/11/01 15:23:30;;;;;;;17.88;13.73;;;23.00;99.90;;;;;;6220933;28;88258;-66
2022/11/01 15:26:35;;;;;;;18.83;13.65;;;22.90;99.90;;;;;;6213619;28;89480;-66
2022/11/01 15:29:37;;;;;;;22.20;15.10;;;22.90;99.90;;;;;;6225960;28;89291;-66
2022/11/01 15:32:39;;;;;;;23.45;15.00;;;22.90;99.90;;;;;;6227679;28;88399;-67
2022/11/01 15:35:41;;;;;;;19.50;14.77;;;22.90;99.90;;;;;;6223530;28;89345;-67
2022/11/01 15:38:50;;;;;;;19.70;14.85;;;22.90;99.90;;;;;;6226011;28;89745;-66
2022/11/01 15:41:55;;;;;;;21.67;15.57;;;22.90;99.90;;;;;;6227072;28;90083;-67
2022/11/01 15:44:58;;;;;;;23.35;15.75;;;22.90;99.90;;;;;;6222252;28;89297;-67
2022/11/01 15:48:07;;;;;;;19.63;14.50;;;22.90;99.90;;;;;;6223002;28;89150;-67
2022/11/01 15:51:20;;;;;;;19.83;14.48;;;22.90;99.90;;;;;;6224928;28;89406;-67
2022/11/01 15:54:34;;;;;;;21.92;14.93;;;22.90;99.90;;;;;;6229481;28;90292;-67
2022/11/01 15:57:41;;;;;;;19.70;14.27;;;23.00;99.90;;;;;;6223494;28;89209;-67
2022/11/01 16:00:47;;;;;;;22.83;14.60;;;22.90;99.90;;;;;;6228003;28;88164;-67
2022/11/01 16:03:55;;;;;;;21.88;16.23;;;22.90;99.90;;;;;;6214275;28;88533;-67